createdAt,value
2023-11-19T00:00:29.870Z,8.70
2023-11-19T00:02:58.525Z,7.53
2023-11-19T00:05:28.658Z,9.20
2023-11-19T00:07:57.211Z,9.85
2023-11-19T00:10:26.254Z,11.82
2023-11-19T00:12:54.889Z,8.65
2023-11-19T00:15:25.271Z,12.23
2023-11-19T00:17:54.110Z,12.50
2023-11-19T00:20:23.766Z,11.88
2023-11-19T00:22:53.846Z,14.15
2023-11-19T00:25:23.853Z,14.68
2023-11-19T00:27:54.689Z,19.70
2023-11-19T00:30:23.629Z,15.60
2023-11-19T00:32:52.085Z,14.60
2023-11-19T00:35:20.993Z,17.38
2023-11-19T00:37:50.513Z,18.77
2023-11-19T00:40:22.956Z,25.13
2023-11-19T00:42:51.667Z,21.85
2023-11-19T00:45:20.567Z,25.20
2023-11-19T00:47:49.234Z,27.98
2023-11-19T00:50:18.581Z,27.83
2023-11-19T00:52:48.228Z,25.70
2023-11-19T00:55:17.165Z,31.98
2023-11-19T00:57:47.218Z,30.88
2023-11-19T01:00:20.379Z,34.50
2023-11-19T01:02:52.007Z,37.75
2023-11-19T01:05:23.813Z,36.25
2023-11-19T01:07:54.855Z,35.67
2023-11-19T01:10:23.671Z,34.78
2023-11-19T01:12:54.104Z,37.28
2023-11-19T01:15:23.800Z,43.38
2023-11-19T01:17:53.362Z,34.20
2023-11-19T01:20:22.760Z,38.40
2023-11-19T01:22:51.983Z,38.20
2023-11-19T01:25:20.928Z,45.28
2023-11-19T01:27:51.231Z,40.22
2023-11-19T01:30:21.395Z,33.13
2023-11-19T01:32:50.010Z,41.22
2023-11-19T01:35:18.541Z,46.60
2023-11-19T01:37:46.972Z,37.75
2023-11-19T01:40:16.567Z,43.58
2023-11-19T01:42:45.174Z,38.55
2023-11-19T01:45:29.925Z,35.35
2023-11-19T01:47:59.213Z,32.08
2023-11-19T01:50:28.448Z,33.05
2023-11-19T01:52:58.659Z,30.98
2023-11-19T01:55:29.271Z,32.50
2023-11-19T01:58:03.477Z,30.00
2023-11-19T02:00:35.751Z,30.88
2023-11-19T02:03:04.903Z,24.65
2023-11-19T02:05:34.566Z,28.42
2023-11-19T02:08:03.310Z,21.85
2023-11-19T02:10:32.978Z,23.33
2023-11-19T02:15:36.596Z,21.25
2023-11-19T02:18:25.224Z,19.23
2023-11-19T02:20:54.028Z,27.67
2023-11-19T02:23:23.662Z,21.50
2023-11-19T02:26:15.102Z,21.55
2023-11-19T02:28:45.594Z,22.92
2023-11-19T02:31:14.191Z,21.83
2023-11-19T02:33:42.785Z,21.88
2023-11-19T02:36:11.964Z,21.77
2023-11-19T02:38:40.637Z,19.52
2023-11-19T02:41:10.641Z,21.45
2023-11-19T02:43:39.974Z,18.83
2023-11-19T02:46:28.433Z,19.23
2023-11-19T02:48:56.976Z,17.88
2023-11-19T02:51:33.354Z,25.17
2023-11-19T02:54:01.732Z,17.73
2023-11-19T02:56:35.571Z,21.25
2023-11-19T02:59:09.823Z,22.85
2023-11-19T03:01:44.669Z,26.10
2023-11-19T03:04:18.077Z,24.23
2023-11-19T03:06:49.336Z,28.60
2023-11-19T03:09:18.043Z,26.23
2023-11-19T03:11:46.499Z,28.70
2023-11-19T03:14:15.011Z,27.20
2023-11-19T03:16:47.454Z,30.45
2023-11-19T03:19:25.683Z,36.97
2023-11-19T03:21:55.140Z,34.30
2023-11-19T03:24:23.604Z,30.63
2023-11-19T03:26:52.503Z,23.67
2023-11-19T03:29:21.058Z,32.55
2023-11-19T03:31:51.146Z,38.45
2023-11-19T03:34:20.049Z,35.85
2023-11-19T03:36:48.509Z,28.10
2023-11-19T03:39:16.915Z,25.45
2023-11-19T03:41:47.970Z,26.10
2023-11-19T03:44:16.491Z,22.08
2023-11-19T03:46:45.089Z,28.95
2023-11-19T03:49:15.234Z,29.85
2023-11-19T03:51:43.650Z,25.48
2023-11-19T03:54:12.716Z,23.73
2023-11-19T03:56:41.147Z,30.90
2023-11-19T03:59:10.898Z,21.77
2023-11-19T04:01:39.476Z,24.70
2023-11-19T04:04:08.108Z,30.88
2023-11-19T04:06:37.954Z,27.58
2023-11-19T04:09:06.901Z,34.35
2023-11-19T04:11:35.392Z,25.05
2023-11-19T04:14:03.884Z,31.23
2023-11-19T04:16:32.402Z,30.83
2023-11-19T04:19:00.871Z,33.17
2023-11-19T04:21:29.425Z,33.28
2023-11-19T04:23:59.277Z,25.20
2023-11-19T04:26:27.776Z,33.83
2023-11-19T04:28:56.627Z,26.92
2023-11-19T04:31:25.561Z,45.47
2023-11-19T04:33:55.828Z,37.03
2023-11-19T04:36:25.341Z,30.77
2023-11-19T04:38:53.756Z,38.15
2023-11-19T04:41:23.731Z,38.97
2023-11-19T04:43:52.181Z,35.05
2023-11-19T04:46:20.707Z,33.53
2023-11-19T04:48:49.591Z,41.65
2023-11-19T04:51:18.037Z,44.20
2023-11-19T04:53:46.539Z,26.85
2023-11-19T04:56:16.213Z,50.72
2023-11-19T04:58:45.936Z,37.60
2023-11-19T05:01:18.141Z,30.48
2023-11-19T05:03:47.637Z,37.47
2023-11-19T05:06:16.720Z,50.55
2023-11-19T05:08:45.161Z,43.25
2023-11-19T05:11:19.006Z,34.35
2023-11-19T05:13:49.070Z,40.38
2023-11-19T05:16:18.658Z,49.30
2023-11-19T05:18:47.204Z,46.00
2023-11-19T05:21:15.681Z,40.63
2023-11-19T05:23:44.087Z,45.08
2023-11-19T05:26:20.160Z,45.38
2023-11-19T05:28:50.286Z,53.88
2023-11-19T05:31:20.037Z,53.03
2023-11-19T05:33:48.640Z,43.20
2023-11-19T05:36:17.114Z,47.95
2023-11-19T05:38:45.786Z,59.47
2023-11-19T05:41:14.657Z,51.58
2023-11-19T05:43:43.235Z,55.53
2023-11-19T05:48:47.699Z,40.75
2023-11-19T05:51:17.228Z,54.67
2023-11-19T05:53:46.799Z,53.72
2023-11-19T05:56:16.833Z,64.82
2023-11-19T05:58:46.027Z,42.40
2023-11-19T06:01:16.303Z,48.00
2023-11-19T06:03:48.633Z,46.63
2023-11-19T06:06:17.317Z,42.75
2023-11-19T06:08:46.061Z,40.40
2023-11-19T06:11:19.209Z,45.22
2023-11-19T06:13:48.803Z,43.75
2023-11-19T06:16:21.679Z,43.75
2023-11-19T06:18:50.252Z,46.60
2023-11-19T06:21:18.726Z,40.78
2023-11-19T06:23:47.139Z,41.20
2023-11-19T06:26:15.975Z,52.78
2023-11-19T06:28:44.527Z,49.42
2023-11-19T06:31:13.064Z,48.67
2023-11-19T06:33:42.892Z,43.40
2023-11-19T06:36:11.627Z,42.95
2023-11-19T06:38:40.087Z,37.63
2023-11-19T06:41:10.552Z,45.25
2023-11-19T06:46:17.181Z,43.05
2023-11-19T06:48:47.270Z,67.60
2023-11-19T06:51:15.823Z,44.13
2023-11-19T06:53:45.316Z,38.10
2023-11-19T06:56:22.129Z,48.65
2023-11-19T06:58:50.699Z,43.78
2023-11-19T07:01:20.054Z,41.30
2023-11-19T07:03:50.805Z,51.78
2023-11-19T07:06:19.465Z,48.72
2023-11-19T07:08:48.050Z,36.90
2023-11-19T07:11:17.667Z,35.65
2023-11-19T07:13:47.418Z,36.42
2023-11-19T07:16:16.560Z,29.75
2023-11-19T07:18:45.917Z,41.00
2023-11-19T07:21:15.688Z,34.50
2023-11-19T07:23:44.722Z,35.53
2023-11-19T07:26:13.355Z,36.40
2023-11-19T07:28:49.197Z,39.00
2023-11-19T07:31:20.175Z,36.55
2023-11-19T07:33:50.325Z,31.60
2023-11-19T07:36:20.293Z,34.22
2023-11-19T07:38:48.732Z,34.97
2023-11-19T07:41:17.744Z,25.58
2023-11-19T07:43:47.567Z,35.78
2023-11-19T07:46:16.382Z,30.90
2023-11-19T07:48:44.908Z,38.10
2023-11-19T07:51:13.797Z,30.25
2023-11-19T07:53:44.086Z,30.55
2023-11-19T07:56:13.580Z,47.03
2023-11-19T07:58:42.998Z,32.53
2023-11-19T08:01:11.639Z,33.20
2023-11-19T08:03:41.029Z,29.65
2023-11-19T08:06:10.414Z,28.35
2023-11-19T08:08:39.288Z,38.60
2023-11-19T08:11:09.508Z,40.13
2023-11-19T08:13:38.136Z,26.73
2023-11-19T08:16:07.859Z,33.63
2023-11-19T08:18:36.305Z,47.92
2023-11-19T08:21:05.915Z,39.10
2023-11-19T08:23:34.591Z,38.05
2023-11-19T08:26:03.106Z,32.85
2023-11-19T08:28:35.231Z,36.83
2023-11-19T08:31:05.848Z,37.38
2023-11-19T08:33:34.550Z,35.80
2023-11-19T08:36:05.089Z,41.33
2023-11-19T08:38:33.637Z,35.88
2023-11-19T08:41:02.174Z,34.25
2023-11-19T08:43:32.703Z,30.40
2023-11-19T08:46:02.648Z,37.28
2023-11-19T08:48:31.398Z,28.20
2023-11-19T08:51:00.109Z,37.40
2023-11-19T08:53:28.716Z,40.80
2023-11-19T08:55:57.489Z,33.75
2023-11-19T08:58:26.161Z,33.78
2023-11-19T09:00:54.631Z,30.40
2023-11-19T09:03:24.533Z,36.90
2023-11-19T09:05:56.259Z,36.55
2023-11-19T09:08:25.065Z,38.70
2023-11-19T09:10:53.514Z,32.75
2023-11-19T09:13:22.240Z,38.05
2023-11-19T09:15:50.833Z,29.30
2023-11-19T09:18:19.847Z,39.33
2023-11-19T09:20:49.667Z,33.78
2023-11-19T09:23:18.450Z,24.42
2023-11-19T09:25:47.036Z,39.58
2023-11-19T09:28:15.602Z,36.30
2023-11-19T09:30:44.575Z,35.00
2023-11-19T09:33:13.258Z,35.42
2023-11-19T09:35:42.085Z,32.17
2023-11-19T09:38:13.734Z,43.10
2023-11-19T09:40:43.638Z,33.92
2023-11-19T09:43:12.907Z,30.00
2023-11-19T09:45:51.080Z,38.58
2023-11-19T09:48:20.682Z,35.10
2023-11-19T09:50:50.425Z,37.20
2023-11-19T09:53:21.377Z,38.05
2023-11-19T09:55:50.199Z,38.95
2023-11-19T09:58:19.229Z,34.25
2023-11-19T10:00:55.728Z,32.35
2023-11-19T10:03:29.200Z,34.22
2023-11-19T10:06:00.626Z,33.63
2023-11-19T10:08:30.576Z,38.58
2023-11-19T10:11:00.375Z,39.83
2023-11-19T10:13:31.500Z,35.60
2023-11-19T10:16:01.125Z,36.80
2023-11-19T10:18:29.625Z,38.25
2023-11-19T10:20:58.659Z,38.13
2023-11-19T10:23:27.647Z,42.90
2023-11-19T10:26:06.126Z,39.80
2023-11-19T10:28:41.674Z,32.58
2023-11-19T10:31:10.283Z,30.83
2023-11-19T10:33:38.787Z,37.28
2023-11-19T10:36:08.253Z,33.80
2023-11-19T10:38:36.781Z,39.72
2023-11-19T10:41:07.470Z,34.45
2023-11-19T10:43:45.782Z,38.63
2023-11-19T10:46:20.073Z,39.83
2023-11-19T10:48:48.910Z,36.50
2023-11-19T10:51:23.335Z,37.95
2023-11-19T10:53:52.666Z,43.63
2023-11-19T10:56:26.654Z,29.00
2023-11-19T10:58:56.644Z,27.92
2023-11-19T11:01:28.720Z,41.30
2023-11-19T11:03:59.351Z,41.25
2023-11-19T11:06:29.441Z,36.75
2023-11-19T11:08:59.954Z,32.30
2023-11-19T11:11:31.452Z,38.50
2023-11-19T11:14:03.553Z,40.15
2023-11-19T11:16:33.844Z,33.45
2023-11-19T11:19:03.037Z,30.73
2023-11-19T11:21:32.838Z,33.17
2023-11-19T11:24:25.267Z,37.47
2023-11-19T11:27:30.724Z,41.53
2023-11-19T11:30:11.952Z,29.10
2023-11-19T11:32:47.400Z,30.77
2023-11-19T11:35:30.320Z,32.38
2023-11-19T11:38:06.108Z,34.55
2023-11-19T11:40:35.007Z,29.45
2023-11-19T11:43:06.436Z,28.90
2023-11-19T11:45:39.189Z,31.50
2023-11-19T11:48:16.831Z,30.80
2023-11-19T11:50:51.544Z,26.87
2023-11-19T11:53:20.841Z,30.23
2023-11-19T11:56:01.010Z,44.28
2023-11-19T11:58:33.662Z,34.30
2023-11-19T12:01:06.855Z,31.63
2023-11-19T12:03:36.312Z,24.13
2023-11-19T12:06:05.362Z,29.65
2023-11-19T12:08:53.213Z,36.13
2023-11-19T12:11:28.264Z,24.42
2023-11-19T12:14:00.937Z,29.35
2023-11-19T12:16:43.960Z,27.60
2023-11-19T12:19:16.320Z,27.50
2023-11-19T12:21:44.765Z,21.13
2023-11-19T12:24:16.426Z,26.73
2023-11-19T12:26:46.209Z,26.95
2023-11-19T12:29:19.419Z,32.97
2023-11-19T12:34:43.752Z,23.67
2023-11-19T12:37:16.382Z,21.05
2023-11-19T12:39:47.541Z,30.55
2023-11-19T12:42:16.506Z,33.40
2023-11-19T12:44:58.177Z,30.77
2023-11-19T12:47:27.958Z,24.65
2023-11-19T12:50:00.728Z,27.33
2023-11-19T12:52:29.751Z,27.98
2023-11-19T12:54:59.183Z,28.75
2023-11-19T12:57:39.212Z,29.95
2023-11-19T13:00:23.120Z,30.45
2023-11-19T13:02:55.421Z,31.75
2023-11-19T13:05:27.380Z,30.98
2023-11-19T13:08:03.957Z,33.78
2023-11-19T13:10:33.471Z,31.17
2023-11-19T13:13:07.415Z,30.60
2023-11-19T13:15:38.117Z,37.42
2023-11-19T13:18:08.030Z,56.33
2023-11-19T13:20:37.125Z,40.53
2023-11-19T13:23:07.958Z,41.45
2023-11-19T13:25:36.756Z,38.63
2023-11-19T13:28:07.208Z,43.30
2023-11-19T13:30:37.470Z,38.22
2023-11-19T13:33:06.381Z,34.10
2023-11-19T13:35:35.215Z,25.77
2023-11-19T13:38:03.913Z,30.65
2023-11-19T13:40:32.429Z,30.77
2023-11-19T13:43:01.334Z,26.02
2023-11-19T13:45:29.922Z,26.13
2023-11-19T13:48:00.041Z,26.52
2023-11-19T13:50:29.911Z,27.38
2023-11-19T13:52:58.698Z,31.30
2023-11-19T13:55:27.607Z,22.38
2023-11-19T13:57:56.259Z,30.98
2023-11-19T14:00:25.618Z,42.20
2023-11-19T14:02:57.105Z,42.15
2023-11-19T14:08:08.629Z,25.20
2023-11-19T14:10:41.550Z,38.05
2023-11-19T14:13:10.340Z,26.75
2023-11-19T14:15:38.995Z,35.88
2023-11-19T14:18:08.213Z,37.03
2023-11-19T14:20:38.965Z,29.33
2023-11-19T14:23:10.312Z,35.88
2023-11-19T14:25:39.045Z,37.25
2023-11-19T14:28:08.639Z,31.73
2023-11-19T14:30:37.668Z,31.95
2023-11-19T14:33:08.534Z,22.75
2023-11-19T14:35:38.734Z,29.13
2023-11-19T14:38:10.932Z,23.10
2023-11-19T14:43:11.946Z,28.60
2023-11-19T14:45:45.634Z,23.10
2023-11-19T14:48:19.756Z,29.20
2023-11-19T14:50:49.747Z,28.08
2023-11-19T14:53:18.379Z,25.25
2023-11-19T14:55:47.217Z,33.17
2023-11-19T14:58:17.516Z,40.58
2023-11-19T15:00:51.954Z,27.30
2023-11-19T15:03:23.580Z,38.00
2023-11-19T15:05:54.043Z,31.02
2023-11-19T15:08:22.556Z,33.25
2023-11-19T15:10:51.174Z,21.48
2023-11-19T15:13:19.725Z,31.13
2023-11-19T15:15:51.483Z,34.63
2023-11-19T15:18:20.199Z,23.27
2023-11-19T15:20:49.396Z,39.72
2023-11-19T15:23:20.680Z,38.17
2023-11-19T15:25:50.136Z,33.38
2023-11-19T15:28:20.136Z,37.53
2023-11-19T15:30:48.912Z,41.47
2023-11-19T15:33:20.576Z,38.85
2023-11-19T15:35:49.184Z,32.70
2023-11-19T15:38:20.579Z,27.85
2023-11-19T15:40:49.145Z,31.02
2023-11-19T15:43:17.618Z,23.30
2023-11-19T15:45:46.129Z,37.88
2023-11-19T15:48:15.736Z,28.13
2023-11-19T15:50:45.754Z,19.20
2023-11-19T15:53:14.607Z,28.00
2023-11-19T15:55:45.275Z,36.40
2023-11-19T15:58:14.392Z,26.30
2023-11-19T16:00:47.233Z,24.25
2023-11-19T16:03:16.987Z,25.58
2023-11-19T16:05:47.053Z,30.88
2023-11-19T16:08:20.004Z,32.63
2023-11-19T16:10:53.047Z,32.95
2023-11-19T16:13:22.918Z,33.30
2023-11-19T16:15:54.700Z,34.13
2023-11-19T16:18:23.322Z,30.67
2023-11-19T16:21:20.366Z,28.67
2023-11-19T16:23:51.052Z,28.92
2023-11-19T16:26:21.371Z,24.92
2023-11-19T16:28:50.529Z,25.88
2023-11-19T16:31:19.109Z,24.08
2023-11-19T16:33:51.287Z,29.88
2023-11-19T16:36:21.994Z,33.63
2023-11-19T16:38:51.017Z,28.20
2023-11-19T16:41:33.418Z,38.35
2023-11-19T16:46:39.246Z,42.63
2023-11-19T16:49:08.463Z,46.65
2023-11-19T16:51:37.725Z,35.90
2023-11-19T16:54:06.609Z,36.28
2023-11-19T16:56:36.633Z,44.25
2023-11-19T16:59:05.138Z,44.60
2023-11-19T17:01:33.578Z,48.60
2023-11-19T17:04:02.099Z,42.78
2023-11-19T17:06:30.578Z,38.58
2023-11-19T17:08:59.150Z,37.17
2023-11-19T17:11:28.237Z,43.90
2023-11-19T17:13:58.402Z,34.42
2023-11-19T17:16:27.461Z,33.63
2023-11-19T17:18:55.948Z,44.28
2023-11-19T17:21:26.290Z,45.72
2023-11-19T17:23:54.900Z,43.95
2023-11-19T17:26:23.473Z,46.38
2023-11-19T17:28:52.067Z,39.63
2023-11-19T17:31:22.053Z,44.17
2023-11-19T17:33:50.711Z,42.63
2023-11-19T17:36:35.477Z,38.75
2023-11-19T17:39:05.062Z,50.33
2023-11-19T17:41:33.546Z,59.60
2023-11-19T17:44:02.417Z,46.55
2023-11-19T17:46:32.530Z,56.55
2023-11-19T17:49:01.194Z,45.33
2023-11-19T17:51:29.983Z,40.08
2023-11-19T17:53:58.724Z,38.25
2023-11-19T17:56:27.428Z,34.70
2023-11-19T17:58:56.134Z,46.08
2023-11-19T18:01:24.797Z,50.33
2023-11-19T18:03:55.262Z,48.67
2023-11-19T18:06:24.801Z,40.85
2023-11-19T18:08:53.621Z,37.15
2023-11-19T18:11:23.232Z,44.65
2023-11-19T18:13:51.993Z,45.30
2023-11-19T18:16:21.049Z,50.28
2023-11-19T18:18:49.940Z,48.70
2023-11-19T18:21:20.151Z,46.00
2023-11-19T18:23:48.929Z,54.20
2023-11-19T18:26:17.658Z,54.80
2023-11-19T18:28:48.016Z,53.75
2023-11-19T18:31:17.001Z,47.25
2023-11-19T18:33:45.849Z,48.92
2023-11-19T18:36:15.991Z,41.47
2023-11-19T18:38:46.137Z,38.85
2023-11-19T18:41:15.131Z,51.72
2023-11-19T18:43:43.862Z,36.72
2023-11-19T18:46:14.367Z,45.97
2023-11-19T18:48:43.067Z,46.80
2023-11-19T18:51:15.107Z,42.53
2023-11-19T18:53:46.117Z,47.47
2023-11-19T18:56:15.786Z,47.65
2023-11-19T18:58:45.425Z,46.17
2023-11-19T19:01:16.740Z,42.28
2023-11-19T19:03:45.963Z,35.95
2023-11-19T19:06:14.562Z,60.30
2023-11-19T19:08:44.953Z,51.35
2023-11-19T19:11:15.162Z,46.20
2023-11-19T19:13:44.656Z,32.60
2023-11-19T19:16:13.643Z,43.85
2023-11-19T19:18:43.024Z,33.47
2023-11-19T19:21:12.221Z,31.40
2023-11-19T19:23:41.121Z,33.50
2023-11-19T19:26:10.152Z,34.90
2023-11-19T19:28:40.264Z,28.38
2023-11-19T19:31:09.193Z,34.75
2023-11-19T19:33:37.805Z,26.00
2023-11-19T19:36:10.565Z,29.10
2023-11-19T19:38:39.486Z,36.20
2023-11-19T19:41:08.133Z,29.65
2023-11-19T19:43:37.567Z,22.05
2023-11-19T19:46:10.250Z,22.15
2023-11-19T19:48:39.284Z,27.13
2023-11-19T19:51:08.724Z,27.27
2023-11-19T19:53:38.630Z,23.95
2023-11-19T19:56:09.885Z,32.95
2023-11-19T19:58:40.625Z,29.05
2023-11-19T20:01:11.654Z,20.17
2023-11-19T20:03:41.071Z,22.15
2023-11-19T20:06:12.533Z,25.27
2023-11-19T20:08:41.942Z,22.98
2023-11-19T20:11:10.839Z,23.63
2023-11-19T20:13:39.601Z,27.35
2023-11-19T20:16:11.214Z,16.75
2023-11-19T20:18:40.161Z,23.55
2023-11-19T20:21:09.899Z,27.20
2023-11-19T20:23:39.097Z,28.55
2023-11-19T20:26:08.163Z,28.23
2023-11-19T20:28:37.198Z,15.38
2023-11-19T20:31:05.968Z,30.83
2023-11-19T20:33:36.554Z,19.70
2023-11-19T20:36:06.561Z,22.80
2023-11-19T20:38:35.520Z,21.17
2023-11-19T20:41:04.653Z,28.38
2023-11-19T20:43:33.613Z,23.10
2023-11-19T20:46:04.485Z,22.63
2023-11-19T20:48:33.411Z,23.17
2023-11-19T20:51:03.831Z,23.92
2023-11-19T20:53:32.574Z,19.70
2023-11-19T20:56:01.887Z,18.77
2023-11-19T20:58:31.113Z,21.27
2023-11-19T21:00:59.701Z,20.23
2023-11-19T21:03:29.302Z,23.90
2023-11-19T21:05:58.991Z,24.65
2023-11-19T21:08:30.698Z,19.73
2023-11-19T21:11:00.028Z,19.20
2023-11-19T21:13:30.396Z,28.45
2023-11-19T21:16:03.429Z,18.80
2023-11-19T21:18:32.539Z,24.52
2023-11-19T21:21:03.807Z,32.45
2023-11-19T21:23:34.215Z,23.20
2023-11-19T21:26:03.217Z,36.58
2023-11-19T21:28:34.231Z,23.10
2023-11-19T21:31:02.998Z,24.38
2023-11-19T21:33:32.017Z,21.65
2023-11-19T21:36:01.492Z,30.73
2023-11-19T21:38:30.417Z,23.90
2023-11-19T21:41:02.202Z,38.35
2023-11-19T21:43:30.850Z,27.27
2023-11-19T21:46:00.217Z,29.02
2023-11-19T21:48:29.069Z,27.67
2023-11-19T21:51:02.498Z,28.08
2023-11-19T21:53:31.672Z,27.38
2023-11-19T21:58:33.385Z,43.53
2023-11-19T22:01:06.170Z,30.98
2023-11-19T22:03:37.928Z,19.90
2023-11-19T22:06:06.951Z,19.60
2023-11-19T22:08:35.769Z,20.98
2023-11-19T22:11:05.721Z,20.27
2023-11-19T22:13:36.261Z,17.73
2023-11-19T22:16:05.768Z,19.10
2023-11-19T22:18:34.627Z,22.95
2023-11-19T22:21:03.813Z,19.08
2023-11-19T22:23:32.650Z,13.07
2023-11-19T22:26:02.165Z,17.63
2023-11-19T22:28:34.366Z,19.00
2023-11-19T22:31:03.444Z,21.15
2023-11-19T22:33:45.154Z,16.70
2023-11-19T22:36:14.221Z,12.73
2023-11-19T22:38:43.111Z,17.38
2023-11-19T22:41:12.172Z,24.35
2023-11-19T22:43:42.606Z,24.65
2023-11-19T22:46:11.326Z,21.02
2023-11-19T22:48:40.208Z,18.90
2023-11-19T22:51:09.565Z,21.98
2023-11-19T22:53:38.358Z,22.95
2023-11-19T22:56:08.532Z,20.35
2023-11-19T22:58:37.280Z,24.77
2023-11-19T23:01:08.123Z,15.50
2023-11-19T23:03:36.982Z,18.83
2023-11-19T23:06:07.652Z,25.40
2023-11-19T23:08:37.166Z,17.58
2023-11-19T23:11:06.848Z,18.38
2023-11-19T23:13:35.691Z,29.15
2023-11-19T23:16:04.901Z,20.38
2023-11-19T23:18:35.040Z,21.92
2023-11-19T23:21:04.824Z,21.73
2023-11-19T23:23:34.190Z,26.02
2023-11-19T23:26:02.701Z,27.70
2023-11-19T23:28:31.250Z,24.70
2023-11-19T23:30:59.753Z,40.30
2023-11-19T23:33:28.271Z,24.92
2023-11-19T23:35:58.996Z,26.30
2023-11-19T23:38:27.459Z,26.30
2023-11-19T23:40:56.048Z,20.15
2023-11-19T23:43:24.490Z,23.95
2023-11-19T23:45:53.001Z,18.67
2023-11-19T23:48:21.445Z,23.70
2023-11-19T23:53:22.773Z,19.83
2023-11-19T23:55:51.235Z,19.88
2023-11-19T23:58:19.766Z,19.02
